Time,TemperatureF,DewpointF,PressureIn,WindDirection,WindDirectionDegrees,WindSpeedMPH,WindSpeedGustMPH,Humidity,HourlyPrecipIn,Conditions,Clouds,dailyrainin,SolarRadiationWatts/m^2,SoftwareType,DateUTC
2013-05-02 00:06:00,70.3,57.0,30.05,SE,146,0.0,2.0,64,0.00,,,0.00,0,weatherlink.com 1.10,2013-05-02 04:06:00,
2013-05-02 00:21:00,70.1,58.0,30.04,SE,146,0.0,3.0,65,0.00,,,0.00,0,weatherlink.com 1.10,2013-05-02 04:21:00,
2013-05-02 00:36:00,70.1,57.0,30.05,SE,146,0.0,2.0,64,0.00,,,0.00,0,weatherlink.com 1.10,2013-05-02 04:36:00,
2013-05-02 00:51:00,69.9,58.0,30.05,SE,146,0.0,3.0,65,0.00,,,0.00,0,weatherlink.com 1.10,2013-05-02 04:51:00,
2013-05-02 01:06:00,69.7,57.0,30.05,SE,146,2.0,4.0,65,0.00,,,0.00,0,weatherlink.com 1.10,2013-05-02 05:06:00,
2013-05-02 01:21:00,69.6,57.0,30.05,SE,137,3.0,4.0,65,0.00,,,0.00,0,weatherlink.com 1.10,2013-05-02 05:21:00,
2013-05-02 01:36:00,69.3,57.0,30.05,SE,129,1.0,5.0,65,0.00,,,0.00,0,weatherlink.com 1.10,2013-05-02 05:36:00,
2013-05-02 01:51:00,69.0,57.0,30.04,SE,131,1.0,4.0,66,0.00,,,0.00,0,weatherlink.com 1.10,2013-05-02 05:51:00,
2013-05-02 02:06:00,68.6,57.0,30.04,SE,132,2.0,4.0,66,0.00,,,0.00,0,weatherlink.com 1.10,2013-05-02 06:06:00,
2013-05-02 02:21:00,68.3,56.0,30.04,SE,132,2.0,5.0,66,0.00,,,0.00,0,weatherlink.com 1.10,2013-05-02 06:21:00,
2013-05-02 02:36:00,68.0,57.0,30.03,SE,129,3.0,4.0,67,0.00,,,0.00,0,weatherlink.com 1.10,2013-05-02 06:36:00,
2013-05-02 02:51:00,67.7,56.0,30.03,SE,124,1.0,6.0,67,0.00,,,0.00,0,weatherlink.com 1.10,2013-05-02 06:51:00,
2013-05-02 03:06:00,67.6,56.0,30.03,ESE,117,2.0,5.0,67,0.00,,,0.00,0,weatherlink.com 1.10,2013-05-02 07:06:00,
2013-05-02 03:21:00,67.5,56.0,30.03,ESE,121,1.0,5.0,67,0.00,,,0.00,0,weatherlink.com 1.10,2013-05-02 07:21:00,
2013-05-02 03:36:00,67.2,56.0,30.03,ESE,122,0.0,4.0,68,0.00,,,0.00,0,weatherlink.com 1.10,2013-05-02 07:36:00,
2013-05-02 03:51:00,66.8,56.0,30.03,ESE,122,0.0,3.0,68,0.00,,,0.00,0,weatherlink.com 1.10,2013-05-02 07:51:00,
2013-05-02 04:06:00,66.3,56.0,30.03,ESE,122,0.0,1.0,69,0.00,,,0.00,0,weatherlink.com 1.10,2013-05-02 08:06:00,
2013-05-02 04:21:00,65.9,56.0,30.03,ESE,122,0.0,1.0,71,0.00,,,0.00,0,weatherlink.com 1.10,2013-05-02 08:21:00,
2013-05-02 04:36:00,64.9,56.0,30.03,ESE,122,1.0,2.0,73,0.00,,,0.00,0,weatherlink.com 1.10,2013-05-02 08:36:00,
2013-05-02 04:51:00,64.4,56.0,30.03,ESE,122,0.0,2.0,74,0.00,,,0.00,0,weatherlink.com 1.10,2013-05-02 08:51:00,
2013-05-02 05:06:00,63.7,56.0,30.03,ESE,122,2.0,4.0,75,0.00,,,0.00,0,weatherlink.com 1.10,2013-05-02 09:06:00,
2013-05-02 05:21:00,63.6,56.0,30.03,ESE,112,0.0,3.0,75,0.00,,,0.00,0,weatherlink.com 1.10,2013-05-02 09:21:00,
2013-05-02 05:36:00,63.4,55.0,30.02,ESE,112,2.0,4.0,75,0.00,,,0.00,0,weatherlink.com 1.10,2013-05-02 09:36:00,
2013-05-02 05:51:00,63.0,55.0,30.02,ESE,112,1.0,3.0,76,0.00,,,0.00,0,weatherlink.com 1.10,2013-05-02 09:51:00,
2013-05-02 06:07:00,63.1,55.0,30.03,ESE,112,1.0,2.0,76,0.00,,,0.00,0,weatherlink.com 1.10,2013-05-02 10:07:00,
2013-05-02 06:22:00,62.9,55.0,30.03,ESE,112,0.0,2.0,76,0.00,,,0.00,0,weatherlink.com 1.10,2013-05-02 10:22:00,
2013-05-02 06:37:00,62.4,55.0,30.03,ESE,112,1.0,2.0,77,0.00,,,0.00,0,weatherlink.com 1.10,2013-05-02 10:37:00,
2013-05-02 06:52:00,62.5,55.0,30.03,ESE,112,1.0,3.0,77,0.00,,,0.00,11,weatherlink.com 1.10,2013-05-02 10:52:00,
2013-05-02 07:07:00,62.9,55.0,30.03,ESE,112,0.0,4.0,76,0.00,,,0.00,26,weatherlink.com 1.10,2013-05-02 11:07:00,
2013-05-02 07:22:00,63.6,56.0,30.04,ESE,112,0.0,2.0,75,0.00,,,0.00,39,weatherlink.com 1.10,2013-05-02 11:22:00,
2013-05-02 07:37:00,63.9,55.0,30.04,ESE,112,2.0,2.0,74,0.00,,,0.00,56,weatherlink.com 1.10,2013-05-02 11:37:00,
2013-05-02 07:52:00,64.4,56.0,30.05,ESE,116,3.0,5.0,74,0.00,,,0.00,105,weatherlink.com 1.10,2013-05-02 11:52:00,
2013-05-02 08:07:00,64.8,56.0,30.05,ESE,118,1.0,7.0,73,0.00,,,0.00,98,weatherlink.com 1.10,2013-05-02 12:07:00,
2013-05-02 08:22:00,65.7,56.0,30.05,ESE,120,1.0,7.0,72,0.00,,,0.00,199,weatherlink.com 1.10,2013-05-02 12:22:00,
2013-05-02 08:37:00,66.8,56.0,30.05,SSE,147,2.0,6.0,69,0.00,,,0.00,220,weatherlink.com 1.10,2013-05-02 12:37:00,
2013-05-02 08:52:00,67.6,57.0,30.06,SSE,156,1.0,8.0,68,0.00,,,0.00,313,weatherlink.com 1.10,2013-05-02 12:52:00,
2013-05-02 09:07:00,68.8,56.0,30.06,South,177,5.0,8.0,65,0.00,,,0.00,338,weatherlink.com 1.10,2013-05-02 13:07:00,
2013-05-02 09:22:00,69.0,57.0,30.06,SSE,162,4.0,10.0,66,0.00,,,0.00,355,weatherlink.com 1.10,2013-05-02 13:22:00,
2013-05-02 09:37:00,69.6,57.0,30.07,SE,129,1.0,10.0,65,0.00,,,0.00,387,weatherlink.com 1.10,2013-05-02 13:37:00,
2013-05-02 09:52:00,70.8,57.0,30.07,South,188,2.0,7.0,63,0.00,,,0.00,306,weatherlink.com 1.10,2013-05-02 13:52:00,
2013-05-02 10:07:00,71.7,56.0,30.06,WSW,243,6.0,8.0,59,0.00,,,0.00,522,weatherlink.com 1.10,2013-05-02 14:07:00,
2013-05-02 10:22:00,72.2,57.0,30.06,SSE,161,0.0,9.0,59,0.00,,,0.00,564,weatherlink.com 1.10,2013-05-02 14:22:00,
2013-05-02 10:37:00,72.6,57.0,30.06,SSE,160,7.0,9.0,58,0.00,,,0.00,603,weatherlink.com 1.10,2013-05-02 14:37:00,
2013-05-02 10:52:00,73.0,57.0,30.06,SW,228,7.0,8.0,57,0.00,,,0.00,645,weatherlink.com 1.10,2013-05-02 14:52:00,
2013-05-02 11:08:00,74.0,57.0,30.06,WSW,245,5.0,9.0,56,0.00,,,0.00,703,weatherlink.com 1.10,2013-05-02 15:08:00,
2013-05-02 11:23:00,73.5,57.0,30.06,SSW,196,7.0,9.0,57,0.00,,,0.00,735,weatherlink.com 1.10,2013-05-02 15:23:00,
2013-05-02 11:38:00,74.8,58.0,30.05,ESE,123,3.0,9.0,56,0.00,,,0.00,775,weatherlink.com 1.10,2013-05-02 15:38:00,
2013-05-02 11:53:00,75.1,58.0,30.05,South,180,3.0,8.0,55,0.00,,,0.00,824,weatherlink.com 1.10,2013-05-02 15:53:00,
2013-05-02 12:08:00,75.9,58.0,30.05,SSE,159,4.0,9.0,54,0.00,,,0.00,851,weatherlink.com 1.10,2013-05-02 16:08:00,
2013-05-02 12:23:00,76.1,58.0,30.04,SE,131,4.0,9.0,53,0.00,,,0.00,851,weatherlink.com 1.10,2013-05-02 16:23:00,
2013-05-02 12:38:00,77.0,58.0,30.04,SSW,211,5.0,11.0,52,0.00,,,0.00,842,weatherlink.com 1.10,2013-05-02 16:38:00,
2013-05-02 12:53:00,77.2,58.0,30.04,SE,143,7.0,9.0,52,0.00,,,0.00,849,weatherlink.com 1.10,2013-05-02 16:53:00,
2013-05-02 13:08:00,76.8,58.0,30.04,SSE,152,2.0,10.0,52,0.00,,,0.00,679,weatherlink.com 1.10,2013-05-02 17:08:00,
2013-05-02 13:23:00,77.0,57.0,30.03,ESE,118,3.0,12.0,51,0.00,,,0.00,853,weatherlink.com 1.10,2013-05-02 17:23:00,
2013-05-02 13:38:00,77.3,56.0,30.02,SE,145,7.0,11.0,48,0.00,,,0.00,882,weatherlink.com 1.10,2013-05-02 17:38:00,
2013-05-02 13:53:00,77.6,57.0,30.02,SE,146,4.0,11.0,49,0.00,,,0.00,761,weatherlink.com 1.10,2013-05-02 17:53:00,
2013-05-02 14:08:00,77.7,56.0,30.02,SSE,150,4.0,9.0,48,0.00,,,0.00,640,weatherlink.com 1.10,2013-05-02 18:08:00,
2013-05-02 14:23:00,78.3,56.0,30.01,South,191,3.0,11.0,47,0.00,,,0.00,977,weatherlink.com 1.10,2013-05-02 18:23:00,
2013-05-02 14:38:00,78.6,56.0,30.01,East,101,3.0,10.0,46,0.00,,,0.00,399,weatherlink.com 1.10,2013-05-02 18:38:00,
2013-05-02 14:53:00,78.3,55.0,30.01,SSE,164,4.0,11.0,45,0.00,,,0.00,844,weatherlink.com 1.10,2013-05-02 18:53:00,
2013-05-02 15:09:00,78.5,54.0,30.00,SSE,167,4.0,8.0,43,0.00,,,0.00,737,weatherlink.com 1.10,2013-05-02 19:09:00,
2013-05-02 15:24:00,78.9,54.0,30.00,SE,144,2.0,11.0,43,0.00,,,0.00,810,weatherlink.com 1.10,2013-05-02 19:24:00,
2013-05-02 15:39:00,79.1,55.0,29.99,SSE,149,4.0,13.0,43,0.00,,,0.00,810,weatherlink.com 1.10,2013-05-02 19:39:00,
2013-05-02 15:54:00,79.1,55.0,29.99,SSE,153,3.0,11.0,43,0.00,,,0.00,717,weatherlink.com 1.10,2013-05-02 19:54:00,
2013-05-02 16:09:00,79.1,55.0,29.98,ESE,111,7.0,10.0,43,0.00,,,0.00,606,weatherlink.com 1.10,2013-05-02 20:09:00,
2013-05-02 16:24:00,79.1,56.0,29.97,East,91,7.0,9.0,45,0.00,,,0.00,591,weatherlink.com 1.10,2013-05-02 20:24:00,
2013-05-02 16:39:00,79.1,55.0,29.96,SE,142,6.0,13.0,44,0.00,,,0.00,483,weatherlink.com 1.10,2013-05-02 20:39:00,
2013-05-02 16:54:00,78.7,56.0,29.96,SE,143,6.0,12.0,45,0.00,,,0.00,454,weatherlink.com 1.10,2013-05-02 20:54:00,
2013-05-02 17:09:00,78.2,56.0,29.96,SE,128,0.0,11.0,47,0.00,,,0.00,174,weatherlink.com 1.10,2013-05-02 21:09:00,
2013-05-02 17:24:00,77.8,56.0,29.96,SE,129,0.0,9.0,47,0.00,,,0.00,167,weatherlink.com 1.10,2013-05-02 21:24:00,
2013-05-02 17:39:00,77.7,56.0,29.96,ESE,123,2.0,13.0,47,0.00,,,0.00,506,weatherlink.com 1.10,2013-05-02 21:39:00,
2013-05-02 17:54:00,77.3,55.0,29.96,NNW,343,0.0,8.0,46,0.00,,,0.00,167,weatherlink.com 1.10,2013-05-02 21:54:00,
2013-05-02 18:09:00,73.1,54.0,29.95,North,349,2.0,7.0,52,0.00,,,0.00,169,weatherlink.com 1.10,2013-05-02 22:09:00,
2013-05-02 18:24:00,70.6,53.0,29.96,NW,318,4.0,9.0,54,0.00,,,0.00,345,weatherlink.com 1.10,2013-05-02 22:24:00,
2013-05-02 18:39:00,68.9,53.0,29.96,NW,325,1.0,8.0,57,0.00,,,0.00,146,weatherlink.com 1.10,2013-05-02 22:39:00,
2013-05-02 18:54:00,69.0,52.0,29.96,WNW,295,6.0,10.0,55,0.00,,,0.00,236,weatherlink.com 1.10,2013-05-02 22:54:00,
2013-05-02 19:09:00,67.7,52.0,29.96,NW,305,3.0,8.0,58,0.00,,,0.00,163,weatherlink.com 1.10,2013-05-02 23:09:00,
2013-05-02 19:24:00,65.7,51.0,29.96,NW,312,6.0,9.0,59,0.00,,,0.00,181,weatherlink.com 1.10,2013-05-02 23:24:00,
2013-05-02 19:39:00,64.9,51.0,29.96,NW,307,3.0,5.0,61,0.00,,,0.00,134,weatherlink.com 1.10,2013-05-02 23:39:00,
2013-05-02 19:54:00,64.8,50.0,29.97,NNW,337,4.0,6.0,60,0.00,,,0.00,113,weatherlink.com 1.10,2013-05-02 23:54:00,
2013-05-02 20:09:00,63.5,51.0,29.97,North,4,4.0,7.0,63,0.00,,,0.00,65,weatherlink.com 1.10,2013-05-03 00:09:00,
2013-05-02 20:24:00,63.2,51.0,29.97,NNW,332,7.0,7.0,64,0.00,,,0.00,30,weatherlink.com 1.10,2013-05-03 00:24:00,
2013-05-02 20:39:00,62.2,51.0,29.97,NNW,343,4.0,6.0,66,0.00,,,0.00,7,weatherlink.com 1.10,2013-05-03 00:39:00,
2013-05-02 20:54:00,61.1,50.0,29.97,North,4,2.0,7.0,68,0.00,,,0.00,0,weatherlink.com 1.10,2013-05-03 00:54:00,
2013-05-02 21:09:00,60.4,51.0,29.98,NNW,330,1.0,6.0,70,0.00,,,0.00,0,weatherlink.com 1.10,2013-05-03 01:09:00,
2013-05-02 21:24:00,59.9,50.0,29.98,NNW,330,5.0,6.0,71,0.00,,,0.00,0,weatherlink.com 1.10,2013-05-03 01:24:00,
2013-05-02 21:39:00,58.6,50.0,29.99,NNW,339,4.0,8.0,72,0.00,,,0.00,0,weatherlink.com 1.10,2013-05-03 01:39:00,
2013-05-02 21:54:00,57.1,49.0,29.99,NNW,333,5.0,8.0,73,0.00,,,0.00,0,weatherlink.com 1.10,2013-05-03 01:54:00,
2013-05-02 22:09:00,55.1,48.0,30.00,North,350,1.0,7.0,76,0.00,,,0.00,0,weatherlink.com 1.10,2013-05-03 02:09:00,
2013-05-02 22:24:00,54.0,47.0,30.00,WNW,301,6.0,7.0,78,0.00,,,0.00,0,weatherlink.com 1.10,2013-05-03 02:24:00,
2013-05-02 22:39:00,53.0,47.0,30.00,NW,316,3.0,7.0,79,0.00,,,0.00,0,weatherlink.com 1.10,2013-05-03 02:39:00,
2013-05-02 22:54:00,51.9,46.0,30.00,WNW,289,3.0,11.0,80,0.00,,,0.00,0,weatherlink.com 1.10,2013-05-03 02:54:00,
2013-05-02 23:10:00,50.1,45.0,30.00,North,359,5.0,11.0,82,0.00,,,0.00,0,weatherlink.com 1.10,2013-05-03 03:10:00,
2013-05-02 23:25:00,49.4,44.0,30.00,NNW,329,3.0,8.0,83,0.00,,,0.00,0,weatherlink.com 1.10,2013-05-03 03:25:00,
2013-05-02 23:40:00,49.1,45.0,30.00,NNW,335,3.0,5.0,84,0.00,,,0.00,0,weatherlink.com 1.10,2013-05-03 03:40:00,
2013-05-02 23:55:00,48.5,44.0,30.00,North,354,2.0,6.0,84,0.00,,,0.00,0,weatherlink.com 1.10,2013-05-03 03:55:00,